THY1DB LPPT-LTFM
Flight info
| Callsign | THY1DB |
|---|---|
| Flight time | 3h 44m |
| Altitude | 36000 |
| Route | ORVED DCT UREDI/N0478F380 DCT DIPOL DCT RBO DCT PINAR DCT SEGRE DCT BRITO DCT PISUS DCT PONEN DCT SEROX N870 BCN/N0465F370 DCT DIPES/N0468F380 N725 OSPOK/N0463F370 DCT NOLVI DCT ORKUM/N0465F380 DCT ELSAG DCT ALG DCT ARSIK DCT MOROB DCT ADRUX DCT ROXAN DCT POKAV DCT GOKEL/N0464F390 DCT LIMJA DCT TIRCA DCT PINDO DCT PEREN UN644 DIGTI/N0405F270 T162 DRAMO |
| Aircraft | B77W/H-SDE1E2E3FGHIJ2J3J4J5M1RWXY/LB1D1 |
Departure
| Time | 2026-05-05 11:04 |
|---|---|
| Airport | Lisbon Humberto Delgado Airport (LPPT) |
Arrival
| Time | 2026-05-05 14:49 |
|---|---|
| Airport | İstanbul Airport (LTFM) |
| Time | Latitude | Longitude | Altitude | Speed | Heading |
|---|---|---|---|---|---|
| 2026-05-05 10:29 | 38.77673 | -9.13216 | 362 ft | 0 kts | 121° |
| 2026-05-05 10:55 | 38.77681 | -9.13234 | 365 ft | 4 kts | 121° |
| 2026-05-05 10:55 | 38.77695 | -9.13264 | 362 ft | 4 kts | 121° |
| 2026-05-05 10:55 | 38.77709 | -9.13294 | 365 ft | 4 kts | 121° |
| 2026-05-05 10:55 | 38.77720 | -9.13317 | 365 ft | 4 kts | 127° |
| 2026-05-05 10:56 | 38.77736 | -9.13337 | 365 ft | 4 kts | 155° |
| 2026-05-05 10:56 | 38.77757 | -9.13346 | 364 ft | 3 kts | 168° |
| 2026-05-05 10:56 | 38.77783 | -9.13353 | 364 ft | 3 kts | 168° |
| 2026-05-05 10:56 | 38.77788 | -9.13354 | 364 ft | 0 kts | 168° |
| 2026-05-05 10:59 | 38.77783 | -9.13353 | 363 ft | 3 kts | 168° |
| 2026-05-05 10:59 | 38.77737 | -9.13351 | 365 ft | 9 kts | 186° |
| 2026-05-05 10:59 | 38.77666 | -9.13380 | 364 ft | 11 kts | 201° |
| 2026-05-05 11:00 | 38.77591 | -9.13420 | 361 ft | 14 kts | 202° |
| 2026-05-05 11:00 | 38.77471 | -9.13418 | 356 ft | 22 kts | 168° |
| 2026-05-05 11:00 | 38.77347 | -9.13390 | 359 ft | 15 kts | 192° |
| 2026-05-05 11:00 | 38.77297 | -9.13501 | 361 ft | 15 kts | 257° |
| 2026-05-05 11:01 | 38.77275 | -9.13633 | 360 ft | 15 kts | 260° |
| 2026-05-05 11:01 | 38.77256 | -9.13765 | 361 ft | 15 kts | 257° |
| 2026-05-05 11:01 | 38.77195 | -9.13868 | 366 ft | 15 kts | 207° |
| 2026-05-05 11:01 | 38.77096 | -9.13920 | 361 ft | 16 kts | 201° |
| 2026-05-05 11:02 | 38.76983 | -9.13977 | 364 ft | 19 kts | 202° |
| 2026-05-05 11:02 | 38.76856 | -9.14046 | 364 ft | 20 kts | 203° |
| 2026-05-05 11:02 | 38.76728 | -9.14116 | 364 ft | 20 kts | 203° |
| 2026-05-05 11:02 | 38.76600 | -9.14183 | 363 ft | 18 kts | 201° |
| 2026-05-05 11:03 | 38.76533 | -9.14253 | 363 ft | 13 kts | 264° |
| 2026-05-05 11:03 | 38.76559 | -9.14367 | 365 ft | 13 kts | 296° |
| 2026-05-05 11:03 | 38.76628 | -9.14397 | 362 ft | 6 kts | 22° |
| 2026-05-05 11:03 | 38.76688 | -9.14366 | 360 ft | 22 kts | 22° |
| 2026-05-05 11:04 | 38.77017 | -9.14192 | 361 ft | 90 kts | 22° |
| 2026-05-05 11:04 | 38.77828 | -9.13761 | 365 ft | 159 kts | 22° |
| 2026-05-05 11:04 | 38.78941 | -9.13141 | 737 ft | 181 kts | 18° |
| 2026-05-05 11:04 | 38.80093 | -9.12530 | 1685 ft | 177 kts | 20° |
| 2026-05-05 11:05 | 38.81215 | -9.11794 | 2433 ft | 183 kts | 25° |
| 2026-05-05 11:05 | 38.82384 | -9.10936 | 2836 ft | 206 kts | 27° |
| 2026-05-05 11:05 | 38.83707 | -9.09947 | 3180 ft | 231 kts | 27° |
| 2026-05-05 11:05 | 38.85126 | -9.08878 | 3891 ft | 241 kts | 29° |
| 2026-05-05 11:06 | 38.86567 | -9.07789 | 4876 ft | 240 kts | 28° |
| 2026-05-05 11:06 | 38.88023 | -9.06693 | 5720 ft | 244 kts | 28° |
| 2026-05-05 11:06 | 38.89367 | -9.05367 | 6530 ft | 249 kts | 45° |
| 2026-05-05 11:06 | 38.90411 | -9.03539 | 7129 ft | 261 kts | 57° |
| 2026-05-05 11:07 | 38.91244 | -9.01447 | 7831 ft | 271 kts | 61° |
| 2026-05-05 11:07 | 38.92054 | -8.99217 | 8562 ft | 280 kts | 62° |
| 2026-05-05 11:07 | 38.92887 | -8.96895 | 9366 ft | 285 kts | 61° |
| 2026-05-05 11:07 | 38.93713 | -8.94604 | 10021 ft | 288 kts | 61° |
| 2026-05-05 11:08 | 38.94575 | -8.92238 | 10614 ft | 301 kts | 60° |
| 2026-05-05 11:08 | 38.95516 | -8.89694 | 10815 ft | 329 kts | 60° |
| 2026-05-05 11:08 | 38.96542 | -8.86931 | 11073 ft | 355 kts | 60° |
| 2026-05-05 11:08 | 38.97622 | -8.84014 | 11765 ft | 367 kts | 60° |
| 2026-05-05 11:09 | 38.98733 | -8.81010 | 12665 ft | 376 kts | 60° |
| 2026-05-05 11:09 | 38.99869 | -8.77941 | 13653 ft | 383 kts | 60° |
| 2026-05-05 11:09 | 39.01024 | -8.74820 | 14553 ft | 391 kts | 60° |
| 2026-05-05 11:09 | 39.02201 | -8.71640 | 15447 ft | 397 kts | 60° |
| 2026-05-05 11:10 | 39.03399 | -8.68403 | 16333 ft | 404 kts | 59° |
| 2026-05-05 11:10 | 39.04619 | -8.65107 | 17202 ft | 412 kts | 59° |
| 2026-05-05 11:10 | 39.05861 | -8.61749 | 18072 ft | 419 kts | 59° |
| 2026-05-05 11:10 | 39.07123 | -8.58333 | 18843 ft | 427 kts | 59° |
| 2026-05-05 11:11 | 39.08407 | -8.54855 | 19602 ft | 433 kts | 59° |
| 2026-05-05 11:11 | 39.09708 | -8.51326 | 20398 ft | 439 kts | 59° |
| 2026-05-05 11:11 | 39.11024 | -8.47751 | 21167 ft | 445 kts | 59° |
| 2026-05-05 11:11 | 39.12355 | -8.44127 | 21910 ft | 451 kts | 59° |
| 2026-05-05 11:12 | 39.13707 | -8.40442 | 22628 ft | 458 kts | 59° |
| 2026-05-05 11:12 | 39.15076 | -8.36707 | 23359 ft | 464 kts | 59° |
| 2026-05-05 11:12 | 39.16459 | -8.32927 | 24007 ft | 469 kts | 59° |
| 2026-05-05 11:12 | 39.17857 | -8.29098 | 24605 ft | 475 kts | 59° |
| 2026-05-05 11:13 | 39.19269 | -8.25227 | 25208 ft | 480 kts | 59° |
| 2026-05-05 11:13 | 39.20696 | -8.21311 | 25800 ft | 485 kts | 60° |
| 2026-05-05 11:13 | 39.22138 | -8.17348 | 26358 ft | 491 kts | 60° |
| 2026-05-05 11:13 | 39.23594 | -8.13343 | 26905 ft | 496 kts | 60° |
| 2026-05-05 11:14 | 39.25062 | -8.09295 | 27466 ft | 501 kts | 60° |
| 2026-05-05 11:14 | 39.26545 | -8.05205 | 28009 ft | 506 kts | 60° |
| 2026-05-05 11:14 | 39.28031 | -8.01075 | 28531 ft | 511 kts | 62° |
| 2026-05-05 11:14 | 39.29393 | -7.96799 | 29032 ft | 518 kts | 65° |
| 2026-05-05 11:15 | 39.30644 | -7.92404 | 29522 ft | 524 kts | 67° |
| 2026-05-05 11:15 | 39.31844 | -7.88015 | 29994 ft | 528 kts | 67° |
| 2026-05-05 11:15 | 39.33079 | -7.83524 | 30375 ft | 533 kts | 67° |
| 2026-05-05 11:15 | 39.34345 | -7.79012 | 30714 ft | 537 kts | 66° |
| 2026-05-05 11:16 | 39.35639 | -7.74483 | 31095 ft | 539 kts | 66° |
| 2026-05-05 11:16 | 39.36947 | -7.69931 | 31576 ft | 540 kts | 66° |
| 2026-05-05 11:16 | 39.38253 | -7.65382 | 32060 ft | 539 kts | 65° |
| 2026-05-05 11:16 | 39.39699 | -7.60928 | 32528 ft | 537 kts | 61° |
| 2026-05-05 11:17 | 39.41332 | -7.56586 | 32970 ft | 537 kts | 58° |
| 2026-05-05 11:17 | 39.43052 | -7.52305 | 33431 ft | 536 kts | 58° |
| 2026-05-05 11:17 | 39.44791 | -7.48040 | 33900 ft | 536 kts | 58° |
| 2026-05-05 11:17 | 39.46515 | -7.43766 | 34326 ft | 536 kts | 58° |
| 2026-05-05 11:18 | 39.48210 | -7.39477 | 34818 ft | 533 kts | 59° |
| 2026-05-05 11:18 | 39.49868 | -7.35205 | 35335 ft | 529 kts | 59° |
| 2026-05-05 11:18 | 39.51501 | -7.30945 | 35840 ft | 526 kts | 60° |
| 2026-05-05 11:18 | 39.53118 | -7.26701 | 36264 ft | 524 kts | 60° |
| 2026-05-05 11:19 | 39.54728 | -7.22463 | 36668 ft | 523 kts | 60° |
| 2026-05-05 11:19 | 39.56334 | -7.18236 | 37043 ft | 522 kts | 60° |
| 2026-05-05 11:19 | 39.57939 | -7.14012 | 37054 ft | 523 kts | 60° |
| 2026-05-05 11:20 | 39.61147 | -7.05563 | 37066 ft | 522 kts | 60° |
| 2026-05-05 11:20 | 39.64350 | -6.97110 | 37065 ft | 523 kts | 60° |
| 2026-05-05 11:21 | 39.67550 | -6.88637 | 37067 ft | 524 kts | 60° |
| 2026-05-05 11:21 | 39.70753 | -6.80132 | 37062 ft | 524 kts | 60° |
| 2026-05-05 11:22 | 39.73949 | -6.71622 | 37060 ft | 524 kts | 60° |
| 2026-05-05 11:22 | 39.77141 | -6.63095 | 37057 ft | 525 kts | 61° |
| 2026-05-05 11:23 | 39.80325 | -6.54565 | 37050 ft | 525 kts | 61° |
| 2026-05-05 11:23 | 39.83505 | -6.46022 | 37048 ft | 525 kts | 61° |
| 2026-05-05 11:24 | 39.86651 | -6.37523 | 37049 ft | 525 kts | 62° |
| 2026-05-05 11:24 | 39.89603 | -6.28818 | 37034 ft | 526 kts | 64° |
| 2026-05-05 11:25 | 39.92449 | -6.20042 | 37053 ft | 526 kts | 64° |
| 2026-05-05 11:25 | 39.95312 | -6.11273 | 37030 ft | 526 kts | 64° |
| 2026-05-05 11:26 | 39.98201 | -6.02504 | 37028 ft | 526 kts | 64° |
| 2026-05-05 11:26 | 40.01088 | -5.93743 | 37032 ft | 526 kts | 64° |
| 2026-05-05 11:27 | 40.03968 | -5.84974 | 37020 ft | 526 kts | 64° |
| 2026-05-05 11:27 | 40.06839 | -5.76195 | 37020 ft | 526 kts | 64° |
| 2026-05-05 11:28 | 40.09703 | -5.67408 | 37023 ft | 526 kts | 64° |
| 2026-05-05 11:28 | 40.12562 | -5.58607 | 37017 ft | 526 kts | 64° |
| 2026-05-05 11:29 | 40.15412 | -5.49807 | 37025 ft | 526 kts | 64° |
| 2026-05-05 11:29 | 40.18259 | -5.40989 | 37026 ft | 526 kts | 65° |
| 2026-05-05 11:30 | 40.21093 | -5.32182 | 37031 ft | 526 kts | 65° |
| 2026-05-05 11:30 | 40.23922 | -5.23365 | 37018 ft | 525 kts | 65° |
| 2026-05-05 11:31 | 40.26724 | -5.14601 | 37014 ft | 526 kts | 65° |
| 2026-05-05 11:31 | 40.29543 | -5.05763 | 37010 ft | 525 kts | 65° |
| 2026-05-05 11:32 | 40.32343 | -4.96943 | 37018 ft | 525 kts | 65° |
| 2026-05-05 11:32 | 40.35144 | -4.88101 | 37014 ft | 526 kts | 66° |
| 2026-05-05 11:33 | 40.37939 | -4.79245 | 37009 ft | 525 kts | 66° |
| 2026-05-05 11:33 | 40.40729 | -4.70382 | 37000 ft | 526 kts | 66° |
| 2026-05-05 11:34 | 40.43512 | -4.61518 | 37008 ft | 526 kts | 66° |
| 2026-05-05 11:34 | 40.46298 | -4.52635 | 37011 ft | 526 kts | 66° |
| 2026-05-05 11:35 | 40.49075 | -4.43753 | 36990 ft | 526 kts | 66° |
| 2026-05-05 11:35 | 40.51843 | -4.34867 | 36998 ft | 526 kts | 66° |
| 2026-05-05 11:36 | 40.54605 | -4.25965 | 36978 ft | 526 kts | 67° |
| 2026-05-05 11:36 | 40.57363 | -4.17053 | 36996 ft | 526 kts | 67° |
| 2026-05-05 11:37 | 40.60114 | -4.08132 | 36986 ft | 526 kts | 67° |
| 2026-05-05 11:37 | 40.62860 | -3.99198 | 36999 ft | 526 kts | 67° |
| 2026-05-05 11:38 | 40.65597 | -3.90261 | 36986 ft | 527 kts | 67° |
| 2026-05-05 11:38 | 40.68329 | -3.81314 | 36998 ft | 527 kts | 67° |
| 2026-05-05 11:39 | 40.71055 | -3.72356 | 36998 ft | 526 kts | 68° |
| 2026-05-05 11:39 | 40.73771 | -3.63398 | 36990 ft | 526 kts | 68° |
| 2026-05-05 11:40 | 40.76483 | -3.54425 | 36993 ft | 527 kts | 68° |
| 2026-05-05 11:40 | 40.79190 | -3.45440 | 36988 ft | 527 kts | 68° |
| 2026-05-05 11:41 | 40.81892 | -3.36437 | 36973 ft | 527 kts | 68° |
| 2026-05-05 11:41 | 40.84588 | -3.27426 | 36975 ft | 528 kts | 68° |
| 2026-05-05 11:42 | 40.86785 | -3.18190 | 36985 ft | 528 kts | 76° |
| 2026-05-05 11:42 | 40.88584 | -3.08770 | 36979 ft | 529 kts | 76° |
| 2026-05-05 11:43 | 40.90380 | -2.99342 | 36979 ft | 529 kts | 76° |
| 2026-05-05 11:43 | 40.92208 | -2.89918 | 36983 ft | 530 kts | 76° |
| 2026-05-05 11:44 | 40.94041 | -2.80485 | 36994 ft | 530 kts | 76° |
| 2026-05-05 11:44 | 40.95865 | -2.71033 | 36996 ft | 530 kts | 76° |
| 2026-05-05 11:45 | 40.97682 | -2.61573 | 36984 ft | 531 kts | 77° |
| 2026-05-05 11:45 | 40.99504 | -2.52104 | 36986 ft | 531 kts | 76° |
| 2026-05-05 11:46 | 41.01027 | -2.44229 | 36991 ft | 531 kts | 76° |
| 2026-05-05 11:46 | 41.02848 | -2.34742 | 36986 ft | 532 kts | 77° |
| 2026-05-05 11:47 | 41.04930 | -2.23683 | 36985 ft | 533 kts | 77° |
| 2026-05-05 11:47 | 41.06424 | -2.15700 | 36986 ft | 533 kts | 77° |
| 2026-05-05 11:48 | 41.09099 | -2.01388 | 36984 ft | 534 kts | 77° |
| 2026-05-05 11:48 | 41.10882 | -1.91837 | 36989 ft | 534 kts | 77° |
| 2026-05-05 11:49 | 41.12659 | -1.82270 | 36984 ft | 534 kts | 77° |
| 2026-05-05 11:49 | 41.14427 | -1.72695 | 36995 ft | 535 kts | 77° |
| 2026-05-05 11:50 | 41.16190 | -1.63101 | 36963 ft | 535 kts | 77° |
| 2026-05-05 11:50 | 41.17943 | -1.53511 | 36996 ft | 535 kts | 77° |
| 2026-05-05 11:51 | 41.19690 | -1.43913 | 36990 ft | 535 kts | 78° |
| 2026-05-05 11:51 | 41.21409 | -1.34375 | 36989 ft | 535 kts | 78° |
| 2026-05-05 11:52 | 41.23130 | -1.24763 | 36992 ft | 535 kts | 78° |
| 2026-05-05 11:52 | 41.24844 | -1.15148 | 36985 ft | 535 kts | 78° |
| 2026-05-05 11:53 | 41.26549 | -1.05529 | 36979 ft | 535 kts | 78° |
| 2026-05-05 11:53 | 41.28247 | -0.95908 | 36973 ft | 534 kts | 78° |
| 2026-05-05 11:54 | 41.29937 | -0.86284 | 36966 ft | 534 kts | 78° |
| 2026-05-05 11:54 | 41.31618 | -0.76657 | 36969 ft | 534 kts | 78° |
| 2026-05-05 11:55 | 41.33289 | -0.67034 | 36965 ft | 534 kts | 78° |
| 2026-05-05 11:55 | 41.34879 | -0.57390 | 36961 ft | 533 kts | 83° |
| 2026-05-05 11:56 | 41.35460 | -0.47623 | 36954 ft | 527 kts | 94° |
| 2026-05-05 11:56 | 41.35341 | -0.37866 | 36958 ft | 527 kts | 95° |
| 2026-05-05 11:57 | 41.35212 | -0.28105 | 36962 ft | 527 kts | 94° |
| 2026-05-05 11:57 | 41.35119 | -0.18352 | 36953 ft | 527 kts | 94° |
| 2026-05-05 11:58 | 41.35034 | -0.08610 | 36945 ft | 526 kts | 94° |
| 2026-05-05 11:58 | 41.34938 | 0.01127 | 36949 ft | 526 kts | 95° |
| 2026-05-05 11:59 | 41.34831 | 0.10846 | 36944 ft | 525 kts | 95° |
| 2026-05-05 11:59 | 41.34717 | 0.20568 | 36941 ft | 526 kts | 95° |
| 2026-05-05 12:00 | 41.34591 | 0.30301 | 36931 ft | 526 kts | 95° |
| 2026-05-05 12:00 | 41.34452 | 0.40022 | 36940 ft | 526 kts | 95° |
| 2026-05-05 12:01 | 41.34307 | 0.49754 | 36937 ft | 526 kts | 95° |
| 2026-05-05 12:01 | 41.34155 | 0.59479 | 36937 ft | 526 kts | 95° |
| 2026-05-05 12:02 | 41.33988 | 0.69225 | 36935 ft | 527 kts | 96° |
| 2026-05-05 12:02 | 41.33814 | 0.78969 | 36929 ft | 527 kts | 96° |
| 2026-05-05 12:03 | 41.33633 | 0.88732 | 36937 ft | 528 kts | 96° |
| 2026-05-05 12:03 | 41.33443 | 0.98439 | 36936 ft | 529 kts | 96° |
| 2026-05-05 12:04 | 41.33248 | 1.08218 | 36939 ft | 528 kts | 96° |
| 2026-05-05 12:04 | 41.33041 | 1.18004 | 36933 ft | 530 kts | 96° |
| 2026-05-05 12:05 | 41.32838 | 1.27812 | 36923 ft | 531 kts | 96° |
| 2026-05-05 12:05 | 41.32628 | 1.37633 | 36931 ft | 531 kts | 96° |
| 2026-05-05 12:06 | 41.32409 | 1.47461 | 36932 ft | 531 kts | 96° |
| 2026-05-05 12:06 | 41.32180 | 1.57291 | 36934 ft | 531 kts | 96° |
| 2026-05-05 12:07 | 41.31945 | 1.67109 | 36930 ft | 531 kts | 96° |
| 2026-05-05 12:07 | 41.31687 | 1.76937 | 36936 ft | 531 kts | 96° |
| 2026-05-05 12:08 | 41.31408 | 1.86760 | 36946 ft | 532 kts | 97° |
| 2026-05-05 12:08 | 41.31123 | 1.96590 | 36931 ft | 532 kts | 97° |
| 2026-05-05 12:09 | 41.30833 | 2.06432 | 36940 ft | 532 kts | 97° |
| 2026-05-05 12:09 | 41.29933 | 2.16118 | 36932 ft | 524 kts | 108° |
| 2026-05-05 12:10 | 41.28338 | 2.25559 | 36934 ft | 524 kts | 109° |
| 2026-05-05 12:10 | 41.26728 | 2.34945 | 36936 ft | 524 kts | 109° |
| 2026-05-05 12:11 | 41.25138 | 2.44395 | 36939 ft | 524 kts | 108° |
| 2026-05-05 12:11 | 41.23558 | 2.53859 | 36931 ft | 525 kts | 108° |
| 2026-05-05 12:12 | 41.21972 | 2.63317 | 36932 ft | 524 kts | 108° |
| 2026-05-05 12:12 | 41.20377 | 2.72769 | 36930 ft | 524 kts | 109° |
| 2026-05-05 12:13 | 41.18774 | 2.82204 | 36925 ft | 524 kts | 109° |
| 2026-05-05 12:13 | 41.17164 | 2.91629 | 36928 ft | 523 kts | 109° |
| 2026-05-05 12:14 | 41.15547 | 3.01045 | 36935 ft | 523 kts | 109° |
| 2026-05-05 12:14 | 41.13924 | 3.10450 | 36935 ft | 523 kts | 109° |
| 2026-05-05 12:15 | 41.12296 | 3.19834 | 36936 ft | 522 kts | 109° |
| 2026-05-05 12:15 | 41.10660 | 3.29219 | 36939 ft | 522 kts | 109° |
| 2026-05-05 12:16 | 41.09018 | 3.38588 | 36938 ft | 521 kts | 109° |
| 2026-05-05 12:16 | 41.07370 | 3.47949 | 36935 ft | 521 kts | 109° |
| 2026-05-05 12:17 | 41.05714 | 3.57296 | 36936 ft | 521 kts | 109° |
| 2026-05-05 12:17 | 41.04039 | 3.66623 | 36936 ft | 520 kts | 109° |
| 2026-05-05 12:18 | 41.02360 | 3.75944 | 36937 ft | 520 kts | 110° |
| 2026-05-05 12:18 | 41.00676 | 3.85251 | 36938 ft | 520 kts | 110° |
| 2026-05-05 12:19 | 40.98987 | 3.94565 | 36940 ft | 520 kts | 110° |
| 2026-05-05 12:19 | 40.97295 | 4.03861 | 36938 ft | 520 kts | 110° |
| 2026-05-05 12:20 | 40.95606 | 4.13089 | 36938 ft | 520 kts | 110° |
| 2026-05-05 12:20 | 40.93898 | 4.22377 | 36939 ft | 520 kts | 110° |
| 2026-05-05 12:21 | 40.92183 | 4.31663 | 36951 ft | 520 kts | 110° |
| 2026-05-05 12:21 | 40.90460 | 4.40949 | 36952 ft | 520 kts | 110° |
| 2026-05-05 12:22 | 40.88736 | 4.50223 | 36938 ft | 520 kts | 110° |
| 2026-05-05 12:22 | 40.87029 | 4.59511 | 36942 ft | 520 kts | 110° |
| 2026-05-05 12:23 | 40.85443 | 4.68858 | 36940 ft | 525 kts | 103° |
| 2026-05-05 12:23 | 40.84540 | 4.78453 | 36949 ft | 527 kts | 102° |
| 2026-05-05 12:24 | 40.83703 | 4.88077 | 36949 ft | 527 kts | 102° |
| 2026-05-05 12:24 | 40.82831 | 4.97682 | 36949 ft | 527 kts | 102° |
| 2026-05-05 12:25 | 40.81926 | 5.07289 | 36949 ft | 527 kts | 102° |
| 2026-05-05 12:25 | 40.81008 | 5.16883 | 36951 ft | 527 kts | 102° |
| 2026-05-05 12:26 | 40.80083 | 5.26483 | 36953 ft | 527 kts | 102° |
| 2026-05-05 12:26 | 40.79154 | 5.36067 | 36958 ft | 527 kts | 102° |
| 2026-05-05 12:27 | 40.78217 | 5.45654 | 36957 ft | 527 kts | 102° |
| 2026-05-05 12:27 | 40.77271 | 5.55239 | 36961 ft | 527 kts | 102° |
| 2026-05-05 12:28 | 40.76318 | 5.64817 | 36963 ft | 527 kts | 102° |
| 2026-05-05 12:28 | 40.75356 | 5.74396 | 36964 ft | 527 kts | 102° |
| 2026-05-05 12:29 | 40.74387 | 5.83968 | 36967 ft | 527 kts | 102° |
| 2026-05-05 12:29 | 40.73412 | 5.93537 | 36969 ft | 526 kts | 102° |
| 2026-05-05 12:30 | 40.72432 | 6.03031 | 36966 ft | 526 kts | 102° |
| 2026-05-05 12:30 | 40.71433 | 6.12590 | 36962 ft | 526 kts | 102° |
| 2026-05-05 12:31 | 40.70427 | 6.22143 | 36969 ft | 526 kts | 102° |
| 2026-05-05 12:31 | 40.69415 | 6.31693 | 36974 ft | 526 kts | 102° |
| 2026-05-05 12:32 | 40.68395 | 6.41243 | 36980 ft | 526 kts | 103° |
| 2026-05-05 12:32 | 40.67367 | 6.50788 | 36975 ft | 526 kts | 103° |
| 2026-05-05 12:33 | 40.66333 | 6.60323 | 36977 ft | 526 kts | 103° |
| 2026-05-05 12:33 | 40.65290 | 6.69856 | 36982 ft | 526 kts | 103° |
| 2026-05-05 12:34 | 40.64239 | 6.79386 | 36985 ft | 526 kts | 103° |
| 2026-05-05 12:34 | 40.63360 | 6.87299 | 36985 ft | 526 kts | 103° |
| 2026-05-05 12:35 | 40.62295 | 6.96826 | 36994 ft | 526 kts | 103° |
| 2026-05-05 12:35 | 40.61222 | 7.06349 | 36990 ft | 526 kts | 103° |
| 2026-05-05 12:36 | 40.60141 | 7.15870 | 36986 ft | 526 kts | 103° |
| 2026-05-05 12:36 | 40.59052 | 7.25392 | 36983 ft | 526 kts | 103° |
| 2026-05-05 12:37 | 40.57957 | 7.34909 | 36990 ft | 526 kts | 103° |
| 2026-05-05 12:37 | 40.56909 | 7.44438 | 36991 ft | 528 kts | 99° |
| 2026-05-05 12:38 | 40.56812 | 7.54128 | 36992 ft | 533 kts | 86° |
| 2026-05-05 12:38 | 40.57664 | 7.63822 | 37001 ft | 534 kts | 84° |
| 2026-05-05 12:39 | 40.58565 | 7.73515 | 36992 ft | 534 kts | 85° |
| 2026-05-05 12:39 | 40.59402 | 7.83211 | 36994 ft | 533 kts | 85° |
| 2026-05-05 12:40 | 40.60210 | 7.92909 | 36997 ft | 533 kts | 85° |
| 2026-05-05 12:40 | 40.61017 | 8.02603 | 36994 ft | 533 kts | 85° |
| 2026-05-05 12:41 | 40.61815 | 8.12295 | 36995 ft | 532 kts | 85° |
| 2026-05-05 12:41 | 40.62605 | 8.21981 | 36992 ft | 532 kts | 85° |
| 2026-05-05 12:42 | 40.63400 | 8.31651 | 36992 ft | 531 kts | 85° |
| 2026-05-05 12:42 | 40.64208 | 8.41324 | 37008 ft | 531 kts | 85° |
| 2026-05-05 12:43 | 40.64991 | 8.50992 | 36986 ft | 530 kts | 85° |
| 2026-05-05 12:43 | 40.65721 | 8.60646 | 36992 ft | 530 kts | 85° |
| 2026-05-05 12:44 | 40.66449 | 8.70292 | 36987 ft | 529 kts | 85° |
| 2026-05-05 12:44 | 40.67415 | 8.79905 | 36993 ft | 529 kts | 82° |
| 2026-05-05 12:45 | 40.68547 | 8.89494 | 36980 ft | 529 kts | 82° |
| 2026-05-05 12:45 | 40.69667 | 8.99063 | 36993 ft | 528 kts | 82° |
| 2026-05-05 12:46 | 40.70753 | 9.08629 | 36988 ft | 528 kts | 82° |
| 2026-05-05 12:46 | 40.71822 | 9.18192 | 37000 ft | 527 kts | 82° |
| 2026-05-05 12:47 | 40.72883 | 9.27747 | 36995 ft | 526 kts | 82° |
| 2026-05-05 12:47 | 40.73937 | 9.37290 | 36999 ft | 526 kts | 82° |
| 2026-05-05 12:48 | 40.74976 | 9.46773 | 37004 ft | 526 kts | 82° |
| 2026-05-05 12:48 | 40.76013 | 9.56307 | 37007 ft | 525 kts | 82° |
| 2026-05-05 12:49 | 40.76755 | 9.65894 | 36989 ft | 526 kts | 87° |
| 2026-05-05 12:49 | 40.77181 | 9.75522 | 37000 ft | 525 kts | 88° |
| 2026-05-05 12:50 | 40.77585 | 9.85132 | 37007 ft | 524 kts | 88° |
| 2026-05-05 12:50 | 40.78007 | 9.94734 | 37000 ft | 524 kts | 88° |
| 2026-05-05 12:51 | 40.78434 | 10.04334 | 37009 ft | 524 kts | 88° |
| 2026-05-05 12:51 | 40.78855 | 10.13932 | 37006 ft | 524 kts | 88° |
| 2026-05-05 12:52 | 40.79266 | 10.23525 | 37013 ft | 523 kts | 88° |
| 2026-05-05 12:52 | 40.79667 | 10.33113 | 37023 ft | 523 kts | 88° |
| 2026-05-05 12:53 | 40.80061 | 10.42700 | 37024 ft | 523 kts | 88° |
| 2026-05-05 12:53 | 40.80446 | 10.52282 | 37024 ft | 523 kts | 88° |
| 2026-05-05 12:54 | 40.81009 | 10.66650 | 37028 ft | 522 kts | 88° |
| 2026-05-05 12:55 | 40.81374 | 10.76217 | 37019 ft | 522 kts | 88° |
| 2026-05-05 12:55 | 40.81730 | 10.85778 | 37033 ft | 521 kts | 88° |
| 2026-05-05 12:56 | 40.82079 | 10.95331 | 37023 ft | 521 kts | 88° |
| 2026-05-05 12:56 | 40.82419 | 11.04888 | 37023 ft | 521 kts | 88° |
| 2026-05-05 12:57 | 40.82750 | 11.14366 | 37043 ft | 520 kts | 88° |
| 2026-05-05 12:57 | 40.83086 | 11.23901 | 37039 ft | 520 kts | 87° |
| 2026-05-05 12:58 | 40.83630 | 11.33428 | 37034 ft | 520 kts | 86° |
| 2026-05-05 12:58 | 40.84054 | 11.42948 | 37037 ft | 519 kts | 90° |
| 2026-05-05 12:59 | 40.84064 | 11.52475 | 37041 ft | 519 kts | 91° |
| 2026-05-05 12:59 | 40.84020 | 11.62000 | 37047 ft | 518 kts | 91° |
| 2026-05-05 13:00 | 40.83975 | 11.76273 | 37050 ft | 518 kts | 91° |
| 2026-05-05 13:01 | 40.83923 | 11.95295 | 37052 ft | 518 kts | 91° |
| 2026-05-05 13:01 | 40.83884 | 12.04791 | 37062 ft | 517 kts | 91° |
| 2026-05-05 13:02 | 40.83838 | 12.14288 | 37055 ft | 517 kts | 91° |
| 2026-05-05 13:02 | 40.83782 | 12.23771 | 37055 ft | 517 kts | 91° |
| 2026-05-05 13:03 | 40.83719 | 12.33257 | 37063 ft | 517 kts | 91° |
| 2026-05-05 13:03 | 40.83649 | 12.42737 | 37072 ft | 516 kts | 92° |
| 2026-05-05 13:04 | 40.83571 | 12.52216 | 37068 ft | 516 kts | 92° |
| 2026-05-05 13:04 | 40.83485 | 12.61691 | 37071 ft | 516 kts | 92° |
| 2026-05-05 13:05 | 40.83392 | 12.71165 | 37073 ft | 516 kts | 92° |
| 2026-05-05 13:05 | 40.83291 | 12.80589 | 37071 ft | 517 kts | 92° |
| 2026-05-05 13:06 | 40.83182 | 12.90079 | 37078 ft | 517 kts | 92° |
| 2026-05-05 13:06 | 40.83064 | 12.99586 | 37080 ft | 518 kts | 92° |
| 2026-05-05 13:07 | 40.82938 | 13.09163 | 37086 ft | 518 kts | 92° |
| 2026-05-05 13:07 | 40.82806 | 13.18613 | 37087 ft | 519 kts | 92° |
| 2026-05-05 13:08 | 40.82665 | 13.28143 | 37090 ft | 519 kts | 91° |
| 2026-05-05 13:08 | 40.82516 | 13.37682 | 37090 ft | 520 kts | 91° |
| 2026-05-05 13:09 | 40.82359 | 13.47229 | 37097 ft | 520 kts | 91° |
| 2026-05-05 13:09 | 40.82195 | 13.56771 | 37097 ft | 520 kts | 91° |
| 2026-05-05 13:10 | 40.82022 | 13.66306 | 37100 ft | 520 kts | 91° |
| 2026-05-05 13:10 | 40.81841 | 13.75851 | 37102 ft | 520 kts | 91° |
| 2026-05-05 13:11 | 40.81653 | 13.85386 | 37113 ft | 519 kts | 91° |
| 2026-05-05 13:11 | 40.81457 | 13.94907 | 37110 ft | 519 kts | 91° |
| 2026-05-05 13:12 | 40.81254 | 14.04422 | 37105 ft | 518 kts | 91° |
| 2026-05-05 13:12 | 40.81043 | 14.13923 | 37101 ft | 517 kts | 91° |
| 2026-05-05 13:13 | 40.80824 | 14.23412 | 37106 ft | 517 kts | 91° |
| 2026-05-05 13:13 | 40.80598 | 14.32888 | 37102 ft | 516 kts | 91° |
| 2026-05-05 13:14 | 40.80366 | 14.42294 | 37113 ft | 516 kts | 91° |
| 2026-05-05 13:14 | 40.80124 | 14.51802 | 37104 ft | 514 kts | 91° |
| 2026-05-05 13:15 | 40.79877 | 14.61178 | 37105 ft | 515 kts | 91° |
| 2026-05-05 13:15 | 40.79621 | 14.70608 | 37102 ft | 514 kts | 91° |
| 2026-05-05 13:16 | 40.79357 | 14.80029 | 37107 ft | 513 kts | 91° |
| 2026-05-05 13:16 | 40.79088 | 14.89437 | 37113 ft | 513 kts | 91° |
| 2026-05-05 13:17 | 40.78810 | 14.98839 | 37099 ft | 513 kts | 91° |
| 2026-05-05 13:17 | 40.78526 | 15.08231 | 37103 ft | 512 kts | 91° |
| 2026-05-05 13:18 | 40.78232 | 15.17618 | 37100 ft | 512 kts | 92° |
| 2026-05-05 13:18 | 40.77930 | 15.26986 | 37099 ft | 511 kts | 91° |
| 2026-05-05 13:19 | 40.77624 | 15.36339 | 37090 ft | 510 kts | 91° |
| 2026-05-05 13:19 | 40.77310 | 15.45669 | 37090 ft | 509 kts | 91° |
| 2026-05-05 13:20 | 40.76990 | 15.54993 | 37093 ft | 509 kts | 91° |
| 2026-05-05 13:20 | 40.76662 | 15.64313 | 37082 ft | 508 kts | 91° |
| 2026-05-05 13:21 | 40.76326 | 15.73612 | 37083 ft | 507 kts | 91° |
| 2026-05-05 13:21 | 40.75983 | 15.82900 | 37073 ft | 507 kts | 92° |
| 2026-05-05 13:22 | 40.75693 | 15.90628 | 37074 ft | 508 kts | 92° |
| 2026-05-05 13:22 | 40.75336 | 15.99934 | 37075 ft | 508 kts | 92° |
| 2026-05-05 13:23 | 40.74973 | 16.09241 | 37066 ft | 508 kts | 92° |
| 2026-05-05 13:23 | 40.74600 | 16.18555 | 37066 ft | 509 kts | 92° |
| 2026-05-05 13:24 | 40.74220 | 16.27884 | 37055 ft | 509 kts | 92° |
| 2026-05-05 13:24 | 40.73832 | 16.37211 | 37067 ft | 510 kts | 92° |
| 2026-05-05 13:25 | 40.73437 | 16.46539 | 37051 ft | 510 kts | 92° |
| 2026-05-05 13:25 | 40.73034 | 16.55878 | 37060 ft | 510 kts | 92° |
| 2026-05-05 13:26 | 40.72623 | 16.65217 | 37082 ft | 510 kts | 92° |
| 2026-05-05 13:26 | 40.72204 | 16.74550 | 37093 ft | 510 kts | 92° |
| 2026-05-05 13:27 | 40.71779 | 16.83867 | 37104 ft | 510 kts | 92° |
| 2026-05-05 13:27 | 40.71346 | 16.93198 | 37104 ft | 509 kts | 92° |
| 2026-05-05 13:28 | 40.70906 | 17.02516 | 37104 ft | 509 kts | 92° |
| 2026-05-05 13:28 | 40.70459 | 17.11831 | 37095 ft | 509 kts | 92° |
| 2026-05-05 13:29 | 40.70003 | 17.21138 | 37092 ft | 509 kts | 92° |
| 2026-05-05 13:29 | 40.69541 | 17.30442 | 37090 ft | 509 kts | 92° |
| 2026-05-05 13:30 | 40.69072 | 17.39743 | 37098 ft | 509 kts | 92° |
| 2026-05-05 13:30 | 40.68595 | 17.49040 | 37109 ft | 511 kts | 92° |
| 2026-05-05 13:31 | 40.68356 | 17.53664 | 37310 ft | 514 kts | 92° |
| 2026-05-05 13:31 | 40.68111 | 17.58345 | 37807 ft | 510 kts | 92° |
| 2026-05-05 13:31 | 40.67865 | 17.62983 | 38378 ft | 505 kts | 92° |
| 2026-05-05 13:31 | 40.67620 | 17.67584 | 38813 ft | 503 kts | 92° |
| 2026-05-05 13:32 | 40.67375 | 17.72178 | 39004 ft | 504 kts | 92° |
| 2026-05-05 13:32 | 40.67127 | 17.76788 | 39031 ft | 505 kts | 92° |
| 2026-05-05 13:32 | 40.66624 | 17.86016 | 39071 ft | 505 kts | 92° |
| 2026-05-05 13:33 | 40.66114 | 17.95227 | 39085 ft | 504 kts | 92° |
| 2026-05-05 13:33 | 40.65598 | 18.04424 | 39081 ft | 503 kts | 92° |
| 2026-05-05 13:34 | 40.65075 | 18.13618 | 39070 ft | 503 kts | 92° |
| 2026-05-05 13:34 | 40.64545 | 18.22805 | 39088 ft | 503 kts | 92° |
| 2026-05-05 13:35 | 40.64007 | 18.31989 | 39080 ft | 503 kts | 92° |
| 2026-05-05 13:35 | 40.63463 | 18.41168 | 39079 ft | 503 kts | 92° |
| 2026-05-05 13:36 | 40.62911 | 18.50347 | 39090 ft | 503 kts | 92° |
| 2026-05-05 13:36 | 40.62351 | 18.59533 | 39091 ft | 504 kts | 92° |
| 2026-05-05 13:37 | 40.61796 | 18.68732 | 39094 ft | 504 kts | 91° |
| 2026-05-05 13:37 | 40.61323 | 18.77937 | 39097 ft | 504 kts | 91° |
| 2026-05-05 13:38 | 40.60867 | 18.87150 | 39100 ft | 505 kts | 91° |
| 2026-05-05 13:38 | 40.60393 | 18.96375 | 39102 ft | 505 kts | 91° |
| 2026-05-05 13:39 | 40.59901 | 19.05602 | 39103 ft | 506 kts | 91° |
| 2026-05-05 13:39 | 40.59400 | 19.14829 | 39104 ft | 506 kts | 91° |
| 2026-05-05 13:40 | 40.58891 | 19.24061 | 39103 ft | 506 kts | 92° |
| 2026-05-05 13:40 | 40.58374 | 19.33308 | 39104 ft | 507 kts | 92° |
| 2026-05-05 13:41 | 40.57851 | 19.42546 | 39108 ft | 507 kts | 92° |
| 2026-05-05 13:41 | 40.57319 | 19.51808 | 39099 ft | 508 kts | 92° |
| 2026-05-05 13:42 | 40.56780 | 19.61066 | 39102 ft | 508 kts | 92° |
| 2026-05-05 13:42 | 40.56233 | 19.70325 | 39093 ft | 508 kts | 92° |
| 2026-05-05 13:43 | 40.55678 | 19.79600 | 39104 ft | 509 kts | 92° |
| 2026-05-05 13:43 | 40.55115 | 19.88869 | 39098 ft | 509 kts | 92° |
| 2026-05-05 13:44 | 40.54545 | 19.98137 | 39092 ft | 509 kts | 92° |
| 2026-05-05 13:44 | 40.53967 | 20.07415 | 39080 ft | 509 kts | 92° |
| 2026-05-05 13:45 | 40.53382 | 20.16694 | 39085 ft | 510 kts | 92° |
| 2026-05-05 13:45 | 40.52787 | 20.25985 | 39086 ft | 511 kts | 92° |
| 2026-05-05 13:46 | 40.52188 | 20.35283 | 39095 ft | 510 kts | 92° |
| 2026-05-05 13:46 | 40.51577 | 20.44584 | 39080 ft | 511 kts | 92° |
| 2026-05-05 13:47 | 40.50959 | 20.53891 | 39071 ft | 511 kts | 92° |
| 2026-05-05 13:47 | 40.50337 | 20.63128 | 39068 ft | 511 kts | 92° |
| 2026-05-05 13:48 | 40.49703 | 20.72439 | 39077 ft | 512 kts | 92° |
| 2026-05-05 13:48 | 40.49064 | 20.81752 | 39058 ft | 512 kts | 92° |
| 2026-05-05 13:49 | 40.48420 | 20.91063 | 39064 ft | 512 kts | 92° |
| 2026-05-05 13:49 | 40.48252 | 21.00363 | 39059 ft | 507 kts | 83° |
| 2026-05-05 13:50 | 40.48742 | 21.09605 | 39054 ft | 507 kts | 82° |
| 2026-05-05 13:50 | 40.49255 | 21.18858 | 39049 ft | 507 kts | 82° |
| 2026-05-05 13:51 | 40.49731 | 21.28099 | 39050 ft | 508 kts | 82° |
| 2026-05-05 13:51 | 40.50179 | 21.37357 | 39052 ft | 507 kts | 82° |
| 2026-05-05 13:52 | 40.50617 | 21.46613 | 39047 ft | 508 kts | 82° |
| 2026-05-05 13:52 | 40.51046 | 21.55864 | 39038 ft | 507 kts | 82° |
| 2026-05-05 13:53 | 40.51471 | 21.65104 | 39052 ft | 507 kts | 82° |
| 2026-05-05 13:53 | 40.51889 | 21.74342 | 39060 ft | 506 kts | 82° |
| 2026-05-05 13:54 | 40.52298 | 21.83575 | 39055 ft | 506 kts | 82° |
| 2026-05-05 13:54 | 40.52699 | 21.92797 | 39054 ft | 505 kts | 82° |
| 2026-05-05 13:55 | 40.53092 | 22.01995 | 39048 ft | 504 kts | 82° |
| 2026-05-05 13:55 | 40.53477 | 22.11186 | 39034 ft | 503 kts | 82° |
| 2026-05-05 13:56 | 40.53854 | 22.20349 | 39020 ft | 502 kts | 82° |
| 2026-05-05 13:56 | 40.54224 | 22.29498 | 39021 ft | 501 kts | 82° |
| 2026-05-05 13:57 | 40.54583 | 22.38567 | 39013 ft | 500 kts | 82° |
| 2026-05-05 13:57 | 40.54937 | 22.47685 | 39015 ft | 499 kts | 82° |
| 2026-05-05 13:58 | 40.55285 | 22.56848 | 38999 ft | 498 kts | 82° |
| 2026-05-05 13:58 | 40.55621 | 22.65883 | 39006 ft | 498 kts | 82° |
| 2026-05-05 13:59 | 40.56115 | 22.79512 | 38999 ft | 497 kts | 82° |
| 2026-05-05 14:00 | 40.56539 | 22.91605 | 38994 ft | 497 kts | 83° |
| 2026-05-05 14:00 | 40.56901 | 23.02211 | 39000 ft | 497 kts | 83° |
| 2026-05-05 14:01 | 40.57203 | 23.11278 | 38996 ft | 496 kts | 83° |
| 2026-05-05 14:01 | 40.57497 | 23.20344 | 39008 ft | 496 kts | 83° |
| 2026-05-05 14:02 | 40.57785 | 23.29408 | 39007 ft | 496 kts | 83° |
| 2026-05-05 14:02 | 40.58066 | 23.38479 | 39006 ft | 496 kts | 83° |
| 2026-05-05 14:03 | 40.58339 | 23.47543 | 39028 ft | 496 kts | 83° |
| 2026-05-05 14:03 | 40.58605 | 23.56603 | 39028 ft | 496 kts | 83° |
| 2026-05-05 14:04 | 40.58864 | 23.65655 | 39033 ft | 495 kts | 83° |
| 2026-05-05 14:04 | 40.59113 | 23.74646 | 39025 ft | 494 kts | 83° |
| 2026-05-05 14:05 | 40.59360 | 23.83736 | 39032 ft | 494 kts | 83° |
| 2026-05-05 14:05 | 40.59626 | 23.92760 | 39032 ft | 492 kts | 81° |
| 2026-05-05 14:06 | 40.60747 | 24.01546 | 39032 ft | 483 kts | 69° |
| 2026-05-05 14:06 | 40.62708 | 24.09925 | 39045 ft | 482 kts | 67° |
| 2026-05-05 14:07 | 40.64729 | 24.18344 | 39042 ft | 482 kts | 68° |
| 2026-05-05 14:07 | 40.66712 | 24.26774 | 39043 ft | 482 kts | 68° |
| 2026-05-05 14:08 | 40.68673 | 24.35220 | 39042 ft | 482 kts | 68° |
| 2026-05-05 14:08 | 40.70621 | 24.43660 | 39049 ft | 482 kts | 68° |
| 2026-05-05 14:09 | 40.72251 | 24.50738 | 39048 ft | 481 kts | 68° |
| 2026-05-05 14:09 | 40.74179 | 24.59132 | 39055 ft | 481 kts | 69° |
| 2026-05-05 14:10 | 40.76112 | 24.67578 | 39055 ft | 481 kts | 69° |
| 2026-05-05 14:10 | 40.78039 | 24.76024 | 39037 ft | 481 kts | 69° |
| 2026-05-05 14:11 | 40.79965 | 24.84467 | 39053 ft | 480 kts | 69° |
| 2026-05-05 14:11 | 40.81886 | 24.92918 | 39057 ft | 480 kts | 69° |
| 2026-05-05 14:12 | 40.83797 | 25.01365 | 39045 ft | 480 kts | 69° |
| 2026-05-05 14:12 | 40.85702 | 25.09814 | 39055 ft | 480 kts | 69° |
| 2026-05-05 14:13 | 40.87599 | 25.18265 | 39055 ft | 480 kts | 69° |
| 2026-05-05 14:13 | 40.89491 | 25.26719 | 39051 ft | 479 kts | 69° |
| 2026-05-05 14:14 | 40.91374 | 25.35166 | 39050 ft | 479 kts | 69° |
| 2026-05-05 14:14 | 40.93256 | 25.43624 | 38803 ft | 482 kts | 69° |
| 2026-05-05 14:15 | 40.94201 | 25.47881 | 38291 ft | 481 kts | 69° |
| 2026-05-05 14:15 | 40.95134 | 25.52102 | 37804 ft | 475 kts | 69° |
| 2026-05-05 14:15 | 40.96054 | 25.56278 | 37353 ft | 469 kts | 69° |
| 2026-05-05 14:15 | 40.96960 | 25.60398 | 36898 ft | 464 kts | 69° |
| 2026-05-05 14:16 | 40.97858 | 25.64481 | 36460 ft | 459 kts | 69° |
| 2026-05-05 14:16 | 40.98743 | 25.68512 | 36025 ft | 455 kts | 69° |
| 2026-05-05 14:16 | 40.99621 | 25.72516 | 35579 ft | 451 kts | 69° |
| 2026-05-05 14:16 | 41.00491 | 25.76488 | 35131 ft | 447 kts | 69° |
| 2026-05-05 14:17 | 41.01350 | 25.80423 | 34695 ft | 444 kts | 69° |
| 2026-05-05 14:17 | 41.02203 | 25.84331 | 34234 ft | 440 kts | 68° |
| 2026-05-05 14:17 | 41.03049 | 25.88213 | 33754 ft | 437 kts | 68° |
| 2026-05-05 14:17 | 41.03887 | 25.92069 | 33254 ft | 434 kts | 69° |
| 2026-05-05 14:18 | 41.04717 | 25.95893 | 32795 ft | 430 kts | 69° |
| 2026-05-05 14:18 | 41.05537 | 25.99679 | 32332 ft | 426 kts | 69° |
| 2026-05-05 14:18 | 41.06350 | 26.03440 | 31901 ft | 423 kts | 69° |
| 2026-05-05 14:18 | 41.07156 | 26.07174 | 31465 ft | 419 kts | 69° |
| 2026-05-05 14:19 | 41.07954 | 26.10877 | 30990 ft | 417 kts | 69° |
| 2026-05-05 14:19 | 41.08752 | 26.14580 | 30313 ft | 421 kts | 69° |
| 2026-05-05 14:19 | 41.09559 | 26.18330 | 29625 ft | 423 kts | 69° |
| 2026-05-05 14:19 | 41.10361 | 26.22070 | 28982 ft | 422 kts | 70° |
| 2026-05-05 14:20 | 41.11149 | 26.25761 | 28356 ft | 421 kts | 70° |
| 2026-05-05 14:20 | 41.11756 | 26.29563 | 27631 ft | 426 kts | 81° |
| 2026-05-05 14:20 | 41.11682 | 26.33512 | 27082 ft | 431 kts | 94° |
| 2026-05-05 14:20 | 41.10974 | 26.37366 | 26637 ft | 430 kts | 107° |
| 2026-05-05 14:21 | 41.09841 | 26.41018 | 26173 ft | 427 kts | 110° |
| 2026-05-05 14:21 | 41.08655 | 26.44619 | 25684 ft | 425 kts | 110° |
| 2026-05-05 14:21 | 41.07480 | 26.48194 | 25235 ft | 421 kts | 110° |
| 2026-05-05 14:21 | 41.06338 | 26.51753 | 24803 ft | 418 kts | 109° |
| 2026-05-05 14:22 | 41.05223 | 26.55286 | 24377 ft | 414 kts | 109° |
| 2026-05-05 14:22 | 41.04119 | 26.58802 | 23956 ft | 411 kts | 109° |
| 2026-05-05 14:22 | 41.03194 | 26.62333 | 23427 ft | 401 kts | 97° |
| 2026-05-05 14:22 | 41.02821 | 26.65964 | 22769 ft | 397 kts | 92° |
| 2026-05-05 14:23 | 41.02551 | 26.69589 | 22318 ft | 393 kts | 91° |
| 2026-05-05 14:23 | 41.02300 | 26.73145 | 22185 ft | 382 kts | 91° |
| 2026-05-05 14:23 | 41.02050 | 26.76590 | 22081 ft | 370 kts | 91° |
| 2026-05-05 14:23 | 41.01795 | 26.79941 | 21927 ft | 361 kts | 91° |
| 2026-05-05 14:24 | 41.01537 | 26.83215 | 21679 ft | 355 kts | 91° |
| 2026-05-05 14:24 | 41.01275 | 26.86450 | 21300 ft | 353 kts | 91° |
| 2026-05-05 14:24 | 41.01010 | 26.89680 | 20911 ft | 352 kts | 91° |
| 2026-05-05 14:24 | 41.00743 | 26.92894 | 20532 ft | 350 kts | 91° |
| 2026-05-05 14:25 | 41.00513 | 26.96091 | 20195 ft | 347 kts | 90° |
| 2026-05-05 14:25 | 41.00311 | 26.99256 | 19864 ft | 344 kts | 90° |
| 2026-05-05 14:25 | 41.00116 | 27.02404 | 19533 ft | 342 kts | 90° |
| 2026-05-05 14:25 | 40.99923 | 27.05533 | 19180 ft | 340 kts | 90° |
| 2026-05-05 14:26 | 40.99728 | 27.08652 | 18837 ft | 339 kts | 90° |
| 2026-05-05 14:26 | 40.99530 | 27.11746 | 18518 ft | 337 kts | 90° |
| 2026-05-05 14:26 | 40.99332 | 27.14825 | 18168 ft | 335 kts | 90° |
| 2026-05-05 14:26 | 40.99132 | 27.17888 | 17792 ft | 333 kts | 90° |
| 2026-05-05 14:27 | 40.98933 | 27.20927 | 17425 ft | 331 kts | 90° |
| 2026-05-05 14:27 | 40.98733 | 27.23959 | 17063 ft | 329 kts | 90° |
| 2026-05-05 14:27 | 40.98533 | 27.26968 | 16714 ft | 327 kts | 90° |
| 2026-05-05 14:27 | 40.98334 | 27.29961 | 16367 ft | 326 kts | 90° |
| 2026-05-05 14:28 | 40.98135 | 27.32940 | 16025 ft | 324 kts | 90° |
| 2026-05-05 14:28 | 40.97936 | 27.35902 | 15736 ft | 323 kts | 90° |
| 2026-05-05 14:28 | 40.97737 | 27.38856 | 15496 ft | 323 kts | 90° |
| 2026-05-05 14:28 | 40.97538 | 27.41832 | 15257 ft | 326 kts | 90° |
| 2026-05-05 14:29 | 40.97336 | 27.44831 | 15022 ft | 327 kts | 90° |
| 2026-05-05 14:29 | 40.97131 | 27.47826 | 14784 ft | 326 kts | 90° |
| 2026-05-05 14:29 | 40.96926 | 27.50812 | 14548 ft | 325 kts | 90° |
| 2026-05-05 14:29 | 40.96721 | 27.53781 | 14306 ft | 323 kts | 90° |
| 2026-05-05 14:30 | 40.96516 | 27.56730 | 14069 ft | 321 kts | 90° |
| 2026-05-05 14:30 | 40.96313 | 27.59669 | 13833 ft | 320 kts | 90° |
| 2026-05-05 14:30 | 40.96109 | 27.62591 | 13571 ft | 319 kts | 90° |
| 2026-05-05 14:30 | 40.95905 | 27.65512 | 13309 ft | 318 kts | 90° |
| 2026-05-05 14:31 | 40.95705 | 27.68377 | 13050 ft | 316 kts | 90° |
| 2026-05-05 14:31 | 40.95502 | 27.71264 | 12793 ft | 314 kts | 90° |
| 2026-05-05 14:31 | 40.95299 | 27.74135 | 12531 ft | 313 kts | 90° |
| 2026-05-05 14:31 | 40.95097 | 27.76994 | 12281 ft | 312 kts | 90° |
| 2026-05-05 14:32 | 40.94894 | 27.79847 | 12026 ft | 311 kts | 90° |
| 2026-05-05 14:32 | 40.94692 | 27.82690 | 11770 ft | 310 kts | 90° |
| 2026-05-05 14:32 | 40.94489 | 27.85515 | 11526 ft | 309 kts | 90° |
| 2026-05-05 14:32 | 40.94287 | 27.88339 | 11282 ft | 308 kts | 90° |
| 2026-05-05 14:33 | 40.94084 | 27.91149 | 11036 ft | 307 kts | 90° |
| 2026-05-05 14:33 | 40.93882 | 27.93952 | 10788 ft | 305 kts | 90° |
| 2026-05-05 14:33 | 40.93680 | 27.96740 | 10553 ft | 304 kts | 90° |
| 2026-05-05 14:33 | 40.93477 | 27.99511 | 10311 ft | 301 kts | 90° |
| 2026-05-05 14:34 | 40.93277 | 28.02233 | 10098 ft | 295 kts | 90° |
| 2026-05-05 14:34 | 40.93080 | 28.04917 | 9798 ft | 292 kts | 90° |
| 2026-05-05 14:34 | 40.92885 | 28.07559 | 9591 ft | 286 kts | 90° |
| 2026-05-05 14:34 | 40.92694 | 28.10141 | 9408 ft | 279 kts | 89° |
| 2026-05-05 14:35 | 40.92507 | 28.12670 | 9151 ft | 275 kts | 89° |
| 2026-05-05 14:35 | 40.92322 | 28.15181 | 8815 ft | 274 kts | 90° |
| 2026-05-05 14:35 | 40.92137 | 28.17689 | 8485 ft | 274 kts | 90° |
| 2026-05-05 14:35 | 40.91951 | 28.20195 | 8171 ft | 273 kts | 90° |
| 2026-05-05 14:36 | 40.91765 | 28.22690 | 7860 ft | 273 kts | 90° |
| 2026-05-05 14:36 | 40.91578 | 28.25200 | 7610 ft | 275 kts | 90° |
| 2026-05-05 14:36 | 40.91390 | 28.27705 | 7363 ft | 273 kts | 90° |
| 2026-05-05 14:36 | 40.91202 | 28.30189 | 7111 ft | 271 kts | 90° |
| 2026-05-05 14:37 | 40.91015 | 28.32659 | 6861 ft | 270 kts | 90° |
| 2026-05-05 14:37 | 40.90828 | 28.35122 | 6622 ft | 269 kts | 90° |
| 2026-05-05 14:37 | 40.90641 | 28.37583 | 6385 ft | 268 kts | 90° |
| 2026-05-05 14:37 | 40.90454 | 28.40030 | 6121 ft | 267 kts | 91° |
| 2026-05-05 14:38 | 40.90268 | 28.42455 | 5893 ft | 265 kts | 91° |
| 2026-05-05 14:38 | 40.90082 | 28.44883 | 5688 ft | 264 kts | 91° |
| 2026-05-05 14:38 | 40.89897 | 28.47293 | 5486 ft | 263 kts | 91° |
| 2026-05-05 14:38 | 40.89712 | 28.49698 | 5285 ft | 262 kts | 91° |
| 2026-05-05 14:39 | 40.89526 | 28.52110 | 5216 ft | 268 kts | 91° |
| 2026-05-05 14:39 | 40.89336 | 28.54572 | 5202 ft | 269 kts | 92° |
| 2026-05-05 14:39 | 40.89145 | 28.57013 | 5089 ft | 263 kts | 92° |
| 2026-05-05 14:39 | 40.89238 | 28.59287 | 4990 ft | 236 kts | 68° |
| 2026-05-05 14:40 | 40.89779 | 28.61302 | 5004 ft | 232 kts | 66° |
| 2026-05-05 14:40 | 40.90301 | 28.63315 | 4998 ft | 231 kts | 67° |
| 2026-05-05 14:40 | 40.90820 | 28.65324 | 4995 ft | 231 kts | 67° |
| 2026-05-05 14:40 | 40.91339 | 28.67335 | 4998 ft | 231 kts | 67° |
| 2026-05-05 14:41 | 40.92097 | 28.69102 | 4989 ft | 222 kts | 38° |
| 2026-05-05 14:41 | 40.93394 | 28.70231 | 5004 ft | 222 kts | 27° |
| 2026-05-05 14:41 | 40.94748 | 28.71232 | 5003 ft | 224 kts | 26° |
| 2026-05-05 14:41 | 40.96089 | 28.72220 | 5003 ft | 224 kts | 26° |
| 2026-05-05 14:42 | 40.97479 | 28.73160 | 4990 ft | 217 kts | 14° |
| 2026-05-05 14:42 | 40.98923 | 28.73318 | 5008 ft | 211 kts | 357° |
| 2026-05-05 14:42 | 41.00387 | 28.73276 | 4995 ft | 210 kts | 358° |
| 2026-05-05 14:42 | 41.01839 | 28.73249 | 5003 ft | 207 kts | 358° |
| 2026-05-05 14:43 | 41.03286 | 28.73221 | 4822 ft | 210 kts | 358° |
| 2026-05-05 14:43 | 41.04741 | 28.73192 | 4567 ft | 209 kts | 358° |
| 2026-05-05 14:43 | 41.06177 | 28.73165 | 4325 ft | 205 kts | 358° |
| 2026-05-05 14:43 | 41.07609 | 28.73136 | 4023 ft | 205 kts | 358° |
| 2026-05-05 14:44 | 41.09015 | 28.73109 | 3722 ft | 198 kts | 358° |
| 2026-05-05 14:44 | 41.10348 | 28.73084 | 3456 ft | 186 kts | 358° |
| 2026-05-05 14:44 | 41.11620 | 28.73058 | 3228 ft | 181 kts | 359° |
| 2026-05-05 14:44 | 41.12877 | 28.73034 | 2968 ft | 177 kts | 359° |
| 2026-05-05 14:45 | 41.14055 | 28.73013 | 2760 ft | 162 kts | 359° |
| 2026-05-05 14:45 | 41.15182 | 28.72989 | 2548 ft | 163 kts | 359° |
| 2026-05-05 14:45 | 41.16329 | 28.72967 | 2311 ft | 165 kts | 359° |
| 2026-05-05 14:45 | 41.17467 | 28.72945 | 2099 ft | 161 kts | 359° |
| 2026-05-05 14:46 | 41.18577 | 28.72922 | 1886 ft | 159 kts | 359° |
| 2026-05-05 14:46 | 41.19662 | 28.72904 | 1648 ft | 150 kts | 359° |
| 2026-05-05 14:46 | 41.20574 | 28.72886 | 1451 ft | 138 kts | 359° |
| 2026-05-05 14:46 | 41.21525 | 28.72867 | 1291 ft | 136 kts | 359° |
| 2026-05-05 14:47 | 41.22469 | 28.72848 | 1085 ft | 134 kts | 359° |
| 2026-05-05 14:47 | 41.23405 | 28.72830 | 914 ft | 136 kts | 359° |
| 2026-05-05 14:47 | 41.24350 | 28.72801 | 750 ft | 136 kts | 359° |
| 2026-05-05 14:47 | 41.25294 | 28.72788 | 545 ft | 136 kts | 359° |
| 2026-05-05 14:48 | 41.26246 | 28.72775 | 379 ft | 137 kts | 359° |
| 2026-05-05 14:48 | 41.27165 | 28.72756 | 306 ft | 123 kts | 359° |
| 2026-05-05 14:48 | 41.27904 | 28.72742 | 282 ft | 88 kts | 359° |
| 2026-05-05 14:48 | 41.28402 | 28.72734 | 266 ft | 59 kts | 1° |
| 2026-05-05 14:49 | 41.28673 | 28.72830 | 265 ft | 29 kts | 30° |
| 2026-05-05 14:49 | 41.28737 | 28.72922 | 267 ft | 6 kts | 89° |
| 2026-05-05 14:49 | 41.28705 | 28.72950 | 267 ft | 7 kts | 173° |
| 2026-05-05 14:49 | 41.28652 | 28.72957 | 267 ft | 10 kts | 178° |
| 2026-05-05 14:50 | 41.28565 | 28.72958 | 268 ft | 15 kts | 179° |
| 2026-05-05 14:50 | 41.28455 | 28.72960 | 270 ft | 16 kts | 179° |
| 2026-05-05 14:50 | 41.28342 | 28.72963 | 273 ft | 16 kts | 179° |
| 2026-05-05 14:50 | 41.28225 | 28.72965 | 277 ft | 20 kts | 179° |
| 2026-05-05 14:51 | 41.28067 | 28.72969 | 282 ft | 24 kts | 180° |
| 2026-05-05 14:51 | 41.27903 | 28.72969 | 288 ft | 24 kts | 180° |
| 2026-05-05 14:51 | 41.27741 | 28.72972 | 297 ft | 23 kts | 179° |
| 2026-05-05 14:51 | 41.27581 | 28.72975 | 302 ft | 23 kts | 179° |
| 2026-05-05 14:52 | 41.27421 | 28.72979 | 307 ft | 23 kts | 179° |
| 2026-05-05 14:52 | 41.27261 | 28.72983 | 310 ft | 23 kts | 179° |
| 2026-05-05 14:52 | 41.27103 | 28.72985 | 313 ft | 23 kts | 179° |
| 2026-05-05 14:52 | 41.26957 | 28.72987 | 313 ft | 18 kts | 179° |
| 2026-05-05 14:53 | 41.26870 | 28.73039 | 315 ft | 14 kts | 105° |
| 2026-05-05 14:53 | 41.26866 | 28.73174 | 316 ft | 14 kts | 89° |
| 2026-05-05 14:53 | 41.26869 | 28.73309 | 318 ft | 15 kts | 89° |
| 2026-05-05 14:53 | 41.26871 | 28.73439 | 318 ft | 12 kts | 88° |
| 2026-05-05 14:54 | 41.26850 | 28.73525 | 317 ft | 8 kts | 150° |
| 2026-05-05 14:54 | 41.26807 | 28.73533 | 318 ft | 3 kts | 177° |
| 2026-05-05 14:54 | 41.26790 | 28.73533 | 318 ft | 1 kts | 178° |
| 2026-05-05 14:54 | 41.26789 | 28.73533 | 318 ft | 0 kts | 178° |